sensor_id;sensor_type;location;lat;lon;timestamp;pressure;altitude;pressure_sealevel;temperature;humidity
41624;BME280;27319;50.306;18.926;2022-08-06T00:02:13;98105.47;;;21.75;73.37
41624;BME280;27319;50.306;18.926;2022-08-06T00:05:14;98105.97;;;21.72;73.58
41624;BME280;27319;50.306;18.926;2022-08-06T00:08:14;98104.28;;;21.59;74.09
41624;BME280;27319;50.306;18.926;2022-08-06T00:11:15;98099.56;;;21.55;74.85
41624;BME280;27319;50.306;18.926;2022-08-06T00:14:16;98098.13;;;21.41;74.22
41624;BME280;27319;50.306;18.926;2022-08-06T00:17:17;98103.47;;;21.47;74.22
41624;BME280;27319;50.306;18.926;2022-08-06T00:20:20;98103.00;;;21.39;74.49
41624;BME280;27319;50.306;18.926;2022-08-06T00:23:21;98109.56;;;21.26;75.78
41624;BME280;27319;50.306;18.926;2022-08-06T00:26:22;98105.97;;;21.37;75.80
41624;BME280;27319;50.306;18.926;2022-08-06T00:29:24;98103.75;;;21.34;75.40
41624;BME280;27319;50.306;18.926;2022-08-06T00:32:25;98096.25;;;21.30;75.86
41624;BME280;27319;50.306;18.926;2022-08-06T00:35:26;98099.81;;;21.30;74.94
41624;BME280;27319;50.306;18.926;2022-08-06T00:38:27;98096.28;;;21.18;76.01
41624;BME280;27319;50.306;18.926;2022-08-06T00:41:28;98102.31;;;21.20;75.94
41624;BME280;27319;50.306;18.926;2022-08-06T00:44:29;98108.16;;;21.12;76.56
41624;BME280;27319;50.306;18.926;2022-08-06T00:47:30;98105.78;;;21.16;76.09
41624;BME280;27319;50.306;18.926;2022-08-06T00:50:31;98111.94;;;21.23;75.48
41624;BME280;27319;50.306;18.926;2022-08-06T00:53:32;98115.75;;;21.22;76.42
41624;BME280;27319;50.306;18.926;2022-08-06T00:56:33;98106.22;;;21.13;76.36
41624;BME280;27319;50.306;18.926;2022-08-06T00:59:34;98118.25;;;21.00;76.16
41624;BME280;27319;50.306;18.926;2022-08-06T01:02:34;98124.63;;;21.06;77.06
41624;BME280;27319;50.306;18.926;2022-08-06T01:05:36;98116.31;;;21.01;76.85
41624;BME280;27319;50.306;18.926;2022-08-06T01:08:37;98122.84;;;21.34;75.19
41624;BME280;27319;50.306;18.926;2022-08-06T01:11:38;98124.72;;;21.57;73.65
41624;BME280;27319;50.306;18.926;2022-08-06T01:14:39;98131.34;;;21.84;73.48
41624;BME280;27319;50.306;18.926;2022-08-06T01:17:57;98137.38;;;21.97;72.54
41624;BME280;27319;50.306;18.926;2022-08-06T01:27:33;98145.41;;;22.04;71.29
41624;BME280;27319;50.306;18.926;2022-08-06T01:30:43;98147.81;;;22.00;71.76
41624;BME280;27319;50.306;18.926;2022-08-06T01:33:52;98155.09;;;21.95;71.79
41624;BME280;27319;50.306;18.926;2022-08-06T01:37:11;98156.03;;;21.89;72.21
41624;BME280;27319;50.306;18.926;2022-08-06T01:40:16;98163.63;;;21.87;71.99
41624;BME280;27319;50.306;18.926;2022-08-06T01:43:20;98160.72;;;21.77;72.09
41624;BME280;27319;50.306;18.926;2022-08-06T01:46:23;98169.25;;;21.69;71.69
41624;BME280;27319;50.306;18.926;2022-08-06T01:49:27;98168.19;;;21.70;71.72
41624;BME280;27319;50.306;18.926;2022-08-06T01:52:33;98184.94;;;21.62;71.40
41624;BME280;27319;50.306;18.926;2022-08-06T01:55:41;98173.06;;;21.68;71.36
41624;BME280;27319;50.306;18.926;2022-08-06T01:58:43;98174.72;;;21.57;71.14
41624;BME280;27319;50.306;18.926;2022-08-06T02:01:49;98182.56;;;21.42;72.05
41624;BME280;27319;50.306;18.926;2022-08-06T02:04:53;98191.22;;;21.51;71.44
41624;BME280;27319;50.306;18.926;2022-08-06T02:07:55;98193.84;;;21.46;71.65
41624;BME280;27319;50.306;18.926;2022-08-06T02:11:00;98195.63;;;21.29;71.98
41624;BME280;27319;50.306;18.926;2022-08-06T02:14:03;98203.22;;;21.50;70.71
41624;BME280;27319;50.306;18.926;2022-08-06T02:17:06;98189.34;;;21.51;70.86
41624;BME280;27319;50.306;18.926;2022-08-06T02:20:08;98190.75;;;21.54;70.63
41624;BME280;27319;50.306;18.926;2022-08-06T02:23:16;98199.78;;;21.54;70.28
41624;BME280;27319;50.306;18.926;2022-08-06T02:26:19;98208.56;;;21.45;70.33
41624;BME280;27319;50.306;18.926;2022-08-06T02:29:23;98210.22;;;21.46;70.27
41624;BME280;27319;50.306;18.926;2022-08-06T02:32:26;98216.88;;;21.38;70.72
41624;BME280;27319;50.306;18.926;2022-08-06T02:35:29;98221.63;;;21.43;69.89
41624;BME280;27319;50.306;18.926;2022-08-06T02:38:36;98211.28;;;21.56;69.70
41624;BME280;27319;50.306;18.926;2022-08-06T02:41:50;98225.31;;;21.48;70.07
41624;BME280;27319;50.306;18.926;2022-08-06T02:45:05;98226.38;;;21.59;68.79
41624;BME280;27319;50.306;18.926;2022-08-06T02:48:13;98237.66;;;21.51;68.71
41624;BME280;27319;50.306;18.926;2022-08-06T02:51:19;98240.97;;;21.53;68.79
41624;BME280;27319;50.306;18.926;2022-08-06T02:54:36;98236.59;;;21.52;68.87
41624;BME280;27319;50.306;18.926;2022-08-06T02:57:41;98234.94;;;21.51;68.99
41624;BME280;27319;50.306;18.926;2022-08-06T03:00:48;98247.25;;;21.42;69.16
41624;BME280;27319;50.306;18.926;2022-08-06T03:03:53;98248.81;;;21.38;68.89
41624;BME280;27319;50.306;18.926;2022-08-06T03:06:56;98253.22;;;21.39;69.20
41624;BME280;27319;50.306;18.926;2022-08-06T03:10:00;98247.25;;;21.42;68.96
41624;BME280;27319;50.306;18.926;2022-08-06T03:13:02;98251.56;;;21.61;67.96
41624;BME280;27319;50.306;18.926;2022-08-06T03:16:05;98260.09;;;21.53;68.51
41624;BME280;27319;50.306;18.926;2022-08-06T03:19:08;98263.91;;;21.52;68.47
41624;BME280;27319;50.306;18.926;2022-08-06T03:22:11;98258.09;;;21.60;68.69
41624;BME280;27319;50.306;18.926;2022-08-06T03:25:12;98265.78;;;21.40;69.08
41624;BME280;27319;50.306;18.926;2022-08-06T03:28:14;98266.03;;;21.50;68.80
41624;BME280;27319;50.306;18.926;2022-08-06T03:31:16;98267.13;;;21.49;69.08
41624;BME280;27319;50.306;18.926;2022-08-06T03:34:18;98271.50;;;21.50;69.10
41624;BME280;27319;50.306;18.926;2022-08-06T03:37:20;98283.38;;;21.44;69.54
41624;BME280;27319;50.306;18.926;2022-08-06T03:40:23;98284.94;;;21.51;69.12
41624;BME280;27319;50.306;18.926;2022-08-06T03:43:24;98291.56;;;21.55;69.35
41624;BME280;27319;50.306;18.926;2022-08-06T03:46:45;98302.63;;;21.49;69.65
41624;BME280;27319;50.306;18.926;2022-08-06T03:49:52;98310.47;;;21.57;69.75
41624;BME280;27319;50.306;18.926;2022-08-06T03:53:03;98317.72;;;21.51;70.08
41624;BME280;27319;50.306;18.926;2022-08-06T03:56:06;98324.69;;;21.59;70.24
41624;BME280;27319;50.306;18.926;2022-08-06T03:59:08;98329.59;;;21.57;70.69
41624;BME280;27319;50.306;18.926;2022-08-06T04:02:14;98334.84;;;21.70;69.84
41624;BME280;27319;50.306;18.926;2022-08-06T04:05:18;98344.13;;;21.69;69.97
41624;BME280;27319;50.306;18.926;2022-08-06T04:08:20;98352.56;;;21.79;70.19
41624;BME280;27319;50.306;18.926;2022-08-06T04:11:22;98356.59;;;21.88;70.25
41624;BME280;27319;50.306;18.926;2022-08-06T04:14:23;98369.22;;;21.89;70.54
41624;BME280;27319;50.306;18.926;2022-08-06T04:17:26;98384.66;;;21.83;71.04
41624;BME280;27319;50.306;18.926;2022-08-06T04:20:28;98373.38;;;21.91;71.30
41624;BME280;27319;50.306;18.926;2022-08-06T04:23:32;98375.50;;;21.89;70.76
41624;BME280;27319;50.306;18.926;2022-08-06T04:26:33;98378.00;;;21.91;71.57
41624;BME280;27319;50.306;18.926;2022-08-06T04:29:35;98382.97;;;21.94;70.95
41624;BME280;27319;50.306;18.926;2022-08-06T04:32:38;98394.84;;;21.88;72.03
41624;BME280;27319;50.306;18.926;2022-08-06T04:35:40;98399.28;;;21.89;72.06
41624;BME280;27319;50.306;18.926;2022-08-06T04:38:42;98395.25;;;21.91;72.03
41624;BME280;27319;50.306;18.926;2022-08-06T04:41:43;98405.22;;;21.86;72.75
41624;BME280;27319;50.306;18.926;2022-08-06T04:44:45;98412.00;;;21.95;72.67
41624;BME280;27319;50.306;18.926;2022-08-06T04:47:47;98406.78;;;21.93;72.70
41624;BME280;27319;50.306;18.926;2022-08-06T04:50:47;98420.56;;;21.98;72.39
41624;BME280;27319;50.306;18.926;2022-08-06T04:53:48;98429.34;;;21.89;72.61
41624;BME280;27319;50.306;18.926;2022-08-06T04:56:49;98422.94;;;21.95;73.38
41624;BME280;27319;50.306;18.926;2022-08-06T04:59:50;98436.34;;;21.96;72.78
41624;BME280;27319;50.306;18.926;2022-08-06T05:02:51;98447.06;;;21.98;73.28
41624;BME280;27319;50.306;18.926;2022-08-06T05:06:12;98453.94;;;22.00;73.36
41624;BME280;27319;50.306;18.926;2022-08-06T05:09:25;98463.59;;;22.03;73.50
41624;BME280;27319;50.306;18.926;2022-08-06T05:12:34;98468.97;;;22.09;73.57
41624;BME280;27319;50.306;18.926;2022-08-06T05:15:40;98485.09;;;22.11;73.10
41624;BME280;27319;50.306;18.926;2022-08-06T05:18:53;98512.56;;;22.16;73.33
41624;BME280;27319;50.306;18.926;2022-08-06T05:21:58;98508.91;;;22.10;73.27
41624;BME280;27319;50.306;18.926;2022-08-06T05:25:00;98507.38;;;22.14;73.54
41624;BME280;27319;50.306;18.926;2022-08-06T05:28:01;98537.41;;;22.03;74.13
41624;BME280;27319;50.306;18.926;2022-08-06T05:31:02;98538.59;;;22.07;73.62
41624;BME280;27319;50.306;18.926;2022-08-06T05:34:03;98545.59;;;22.03;73.88
41624;BME280;27319;50.306;18.926;2022-08-06T05:37:04;98557.41;;;22.15;73.88
41624;BME280;27319;50.306;18.926;2022-08-06T05:40:06;98557.25;;;22.10;74.19
41624;BME280;27319;50.306;18.926;2022-08-06T05:43:08;98572.50;;;22.06;74.45
41624;BME280;27319;50.306;18.926;2022-08-06T05:46:16;98578.03;;;21.99;74.85
41624;BME280;27319;50.306;18.926;2022-08-06T05:49:21;98596.31;;;21.99;75.18
41624;BME280;27319;50.306;18.926;2022-08-06T05:52:29;98596.31;;;21.99;74.97
41624;BME280;27319;50.306;18.926;2022-08-06T05:55:37;98606.97;;;22.07;74.31
41624;BME280;27319;50.306;18.926;2022-08-06T05:58:44;98616.22;;;22.06;74.05
41624;BME280;27319;50.306;18.926;2022-08-06T06:01:47;98613.34;;;22.01;74.43
41624;BME280;27319;50.306;18.926;2022-08-06T06:04:49;98616.22;;;22.06;74.82
41624;BME280;27319;50.306;18.926;2022-08-06T06:07:51;98612.72;;;21.99;74.72
41624;BME280;27319;50.306;18.926;2022-08-06T06:10:53;98615.19;;;22.18;74.27
41624;BME280;27319;50.306;18.926;2022-08-06T06:13:54;98612.13;;;22.26;74.13
41624;BME280;27319;50.306;18.926;2022-08-06T06:27:10;98633.16;;;22.26;73.53
41624;BME280;27319;50.306;18.926;2022-08-06T06:30:24;98633.53;;;22.29;74.04
41624;BME280;27319;50.306;18.926;2022-08-06T06:33:42;98635.31;;;22.24;74.58
41624;BME280;27319;50.306;18.926;2022-08-06T06:36:47;98637.94;;;22.30;74.51
41624;BME280;27319;50.306;18.926;2022-08-06T06:40:05;98640.31;;;22.27;74.52
41624;BME280;27319;50.306;18.926;2022-08-06T06:43:21;98655.06;;;22.26;74.73
41624;BME280;27319;50.306;18.926;2022-08-06T06:46:53;98653.69;;;22.17;74.92
41624;BME280;27319;50.306;18.926;2022-08-06T06:50:03;98657.63;;;22.21;74.94
41624;BME280;27319;50.306;18.926;2022-08-06T06:53:10;98658.38;;;22.28;74.61
41624;BME280;27319;50.306;18.926;2022-08-06T06:56:16;98665.44;;;22.35;74.36
41624;BME280;27319;50.306;18.926;2022-08-06T06:59:36;98683.75;;;22.35;74.52
41624;BME280;27319;50.306;18.926;2022-08-06T07:02:38;98690.94;;;22.18;74.96
41624;BME280;27319;50.306;18.926;2022-08-06T07:05:44;98701.88;;;22.18;74.97
41624;BME280;27319;50.306;18.926;2022-08-06T07:08:47;98697.47;;;21.99;76.37
41624;BME280;27319;50.306;18.926;2022-08-06T07:11:50;98705.00;;;22.03;75.95
41624;BME280;27319;50.306;18.926;2022-08-06T07:14:54;98708.34;;;22.05;75.59
41624;BME280;27319;50.306;18.926;2022-08-06T07:17:57;98707.22;;;21.95;76.68
41624;BME280;27319;50.306;18.926;2022-08-06T07:20:59;98722.41;;;21.91;76.90
41624;BME280;27319;50.306;18.926;2022-08-06T07:24:00;98719.06;;;21.89;76.78
41624;BME280;27319;50.306;18.926;2022-08-06T07:27:01;98723.00;;;21.75;77.56
41624;BME280;27319;50.306;18.926;2022-08-06T07:30:04;98720.47;;;21.73;78.49
41624;BME280;27319;50.306;18.926;2022-08-06T07:33:06;98722.47;;;21.42;80.38
41624;BME280;27319;50.306;18.926;2022-08-06T07:36:09;98723.03;;;21.08;83.04
41624;BME280;27319;50.306;18.926;2022-08-06T07:39:14;98717.13;;;20.80;82.79
41624;BME280;27319;50.306;18.926;2022-08-06T07:42:16;98724.06;;;20.76;83.83
41624;BME280;27319;50.306;18.926;2022-08-06T07:45:20;98742.16;;;20.33;84.10
41624;BME280;27319;50.306;18.926;2022-08-06T07:48:31;98715.75;;;20.27;84.81
41624;BME280;27319;50.306;18.926;2022-08-06T07:51:35;98741.75;;;20.29;84.44
41624;BME280;27319;50.306;18.926;2022-08-06T07:54:38;98740.13;;;20.22;84.85
41624;BME280;27319;50.306;18.926;2022-08-06T07:57:41;98733.03;;;20.14;85.51
41624;BME280;27319;50.306;18.926;2022-08-06T08:00:43;98745.00;;;20.07;86.21
41624;BME280;27319;50.306;18.926;2022-08-06T08:03:45;98754.88;;;19.95;86.85
41624;BME280;27319;50.306;18.926;2022-08-06T08:07:05;98763.06;;;19.88;87.22
41624;BME280;27319;50.306;18.926;2022-08-06T08:10:07;98768.06;;;20.04;87.04
41624;BME280;27319;50.306;18.926;2022-08-06T08:13:10;98786.38;;;19.78;87.14
41624;BME280;27319;50.306;18.926;2022-08-06T08:16:13;98780.28;;;19.82;86.75
41624;BME280;27319;50.306;18.926;2022-08-06T08:19:28;98788.88;;;19.73;86.83
41624;BME280;27319;50.306;18.926;2022-08-06T08:22:32;98789.97;;;19.59;87.95
41624;BME280;27319;50.306;18.926;2022-08-06T08:25:34;98796.66;;;19.63;87.57
41624;BME280;27319;50.306;18.926;2022-08-06T08:28:34;98792.28;;;19.55;87.72
41624;BME280;27319;50.306;18.926;2022-08-06T08:31:36;98800.63;;;19.67;88.38
41624;BME280;27319;50.306;18.926;2022-08-06T08:35:11;98785.16;;;19.61;87.35
41624;BME280;27319;50.306;18.926;2022-08-06T08:38:12;98811.53;;;19.67;88.00
41624;BME280;27319;50.306;18.926;2022-08-06T08:41:19;98796.66;;;19.69;86.64
41624;BME280;27319;50.306;18.926;2022-08-06T08:44:24;98805.84;;;19.88;85.88
41624;BME280;27319;50.306;18.926;2022-08-06T08:47:27;98807.72;;;19.87;85.75
41624;BME280;27319;50.306;18.926;2022-08-06T08:50:30;98809.81;;;19.85;86.06
41624;BME280;27319;50.306;18.926;2022-08-06T08:53:39;98817.38;;;19.64;87.30
41624;BME280;27319;50.306;18.926;2022-08-06T08:56:42;98817.84;;;19.41;86.47
41624;BME280;27319;50.306;18.926;2022-08-06T08:59:44;98814.47;;;19.52;86.65
41624;BME280;27319;50.306;18.926;2022-08-06T09:02:46;98821.63;;;19.40;87.35
41624;BME280;27319;50.306;18.926;2022-08-06T09:05:47;98820.34;;;19.36;86.39
41624;BME280;27319;50.306;18.926;2022-08-06T09:08:48;98835.44;;;19.45;86.33
41624;BME280;27319;50.306;18.926;2022-08-06T09:11:49;98831.88;;;19.32;86.85
41624;BME280;27319;50.306;18.926;2022-08-06T09:14:50;98833.13;;;19.36;86.69
41624;BME280;27319;50.306;18.926;2022-08-06T09:17:51;98841.72;;;19.39;86.77
41624;BME280;27319;50.306;18.926;2022-08-06T09:20:55;98844.84;;;19.49;87.36
41624;BME280;27319;50.306;18.926;2022-08-06T09:23:56;98848.00;;;19.53;86.60
41624;BME280;27319;50.306;18.926;2022-08-06T09:27:14;98855.75;;;19.43;87.15
41624;BME280;27319;50.306;18.926;2022-08-06T09:30:16;98868.50;;;19.42;88.16
41624;BME280;27319;50.306;18.926;2022-08-06T09:33:17;98865.16;;;19.34;86.18
41624;BME280;27319;50.306;18.926;2022-08-06T09:36:21;98860.97;;;19.25;85.64
41624;BME280;27319;50.306;18.926;2022-08-06T09:39:39;98875.22;;;19.27;85.83
41624;BME280;27319;50.306;18.926;2022-08-06T09:42:43;98878.94;;;19.19;86.13
41624;BME280;27319;50.306;18.926;2022-08-06T09:45:45;98876.06;;;19.27;84.76
41624;BME280;27319;50.306;18.926;2022-08-06T09:48:59;98894.69;;;19.24;85.05
41624;BME280;27319;50.306;18.926;2022-08-06T09:52:11;98898.19;;;19.18;84.77
41624;BME280;27319;50.306;18.926;2022-08-06T09:55:28;98899.00;;;19.12;84.99
41624;BME280;27319;50.306;18.926;2022-08-06T09:58:33;98901.94;;;19.04;84.39
41624;BME280;27319;50.306;18.926;2022-08-06T10:01:43;98906.09;;;19.00;85.23
41624;BME280;27319;50.306;18.926;2022-08-06T10:04:45;98909.56;;;18.74;86.59
41624;BME280;27319;50.306;18.926;2022-08-06T10:07:47;98916.09;;;18.80;85.67
41624;BME280;27319;50.306;18.926;2022-08-06T10:11:02;98911.47;;;18.80;85.92
41624;BME280;27319;50.306;18.926;2022-08-06T10:14:05;98916.72;;;18.82;86.41
41624;BME280;27319;50.306;18.926;2022-08-06T10:17:10;98924.47;;;18.91;84.63
41624;BME280;27319;50.306;18.926;2022-08-06T10:20:12;98920.72;;;18.86;84.26
41624;BME280;27319;50.306;18.926;2022-08-06T10:23:17;98928.59;;;18.68;85.64
41624;BME280;27319;50.306;18.926;2022-08-06T10:26:27;98931.09;;;18.63;86.15
41624;BME280;27319;50.306;18.926;2022-08-06T10:29:28;98930.72;;;18.32;86.06
41624;BME280;27319;50.306;18.926;2022-08-06T10:32:36;98938.28;;;18.43;86.26
41624;BME280;27319;50.306;18.926;2022-08-06T10:35:40;98950.06;;;18.50;86.76
41624;BME280;27319;50.306;18.926;2022-08-06T10:38:45;98954.38;;;18.38;86.35
41624;BME280;27319;50.306;18.926;2022-08-06T10:41:49;98958.66;;;18.60;86.95
41624;BME280;27319;50.306;18.926;2022-08-06T10:44:51;98954.88;;;18.54;86.63
41624;BME280;27319;50.306;18.926;2022-08-06T10:47:53;98959.69;;;18.52;86.79
41624;BME280;27319;50.306;18.926;2022-08-06T10:50:54;98967.03;;;18.58;85.93
41624;BME280;27319;50.306;18.926;2022-08-06T10:53:55;98963.34;;;18.32;86.71
41624;BME280;27319;50.306;18.926;2022-08-06T10:56:57;98965.25;;;18.38;86.73
41624;BME280;27319;50.306;18.926;2022-08-06T11:00:00;98958.72;;;18.32;87.14
41624;BME280;27319;50.306;18.926;2022-08-06T11:03:15;98981.16;;;18.41;85.50
41624;BME280;27319;50.306;18.926;2022-08-06T11:10:06;98985.44;;;18.29;86.14
41624;BME280;27319;50.306;18.926;2022-08-06T11:16:26;98982.50;;;18.03;86.93
41624;BME280;27319;50.306;18.926;2022-08-06T11:19:40;98985.59;;;18.21;87.40
41624;BME280;27319;50.306;18.926;2022-08-06T11:22:41;98986.16;;;18.16;86.92
41624;BME280;27319;50.306;18.926;2022-08-06T11:25:46;98998.13;;;18.22;86.58
41624;BME280;27319;50.306;18.926;2022-08-06T11:31:51;98993.00;;;18.06;87.33
41624;BME280;27319;50.306;18.926;2022-08-06T11:34:52;98981.50;;;18.04;87.65
41624;BME280;27319;50.306;18.926;2022-08-06T11:37:53;98995.25;;;18.02;88.47
41624;BME280;27319;50.306;18.926;2022-08-06T11:41:00;98994.66;;;18.07;88.63
41624;BME280;27319;50.306;18.926;2022-08-06T11:44:06;99004.38;;;18.16;88.19
41624;BME280;27319;50.306;18.926;2022-08-06T11:47:15;98996.34;;;18.08;89.25
41624;BME280;27319;50.306;18.926;2022-08-06T11:50:22;98987.19;;;18.09;88.09
41624;BME280;27319;50.306;18.926;2022-08-06T11:53:38;98996.75;;;18.05;87.38
41624;BME280;27319;50.306;18.926;2022-08-06T12:00:05;98988.78;;;18.03;87.58
41624;BME280;27319;50.306;18.926;2022-08-06T12:03:08;98974.94;;;17.98;87.46
41624;BME280;27319;50.306;18.926;2022-08-06T12:06:20;98997.72;;;17.97;87.62
41624;BME280;27319;50.306;18.926;2022-08-06T12:09:32;98984.34;;;17.96;89.22
41624;BME280;27319;50.306;18.926;2022-08-06T12:12:53;98988.09;;;17.95;88.93
41624;BME280;27319;50.306;18.926;2022-08-06T12:15:54;98989.22;;;18.07;88.50
41624;BME280;27319;50.306;18.926;2022-08-06T12:18:55;98986.69;;;18.05;88.03
41624;BME280;27319;50.306;18.926;2022-08-06T12:21:57;98989.69;;;18.10;88.34
41624;BME280;27319;50.306;18.926;2022-08-06T12:24:59;98991.81;;;18.15;88.14
41624;BME280;27319;50.306;18.926;2022-08-06T12:28:00;98996.41;;;18.14;88.37
41624;BME280;27319;50.306;18.926;2022-08-06T12:31:02;98995.53;;;18.14;88.77
41624;BME280;27319;50.306;18.926;2022-08-06T12:34:04;98997.34;;;18.28;89.41
41624;BME280;27319;50.306;18.926;2022-08-06T12:37:05;98989.97;;;18.22;89.17
41624;BME280;27319;50.306;18.926;2022-08-06T12:40:17;98998.16;;;18.28;86.99
41624;BME280;27319;50.306;18.926;2022-08-06T12:43:25;98999.53;;;18.39;87.04
41624;BME280;27319;50.306;18.926;2022-08-06T12:46:27;99004.56;;;18.42;87.87
41624;BME280;27319;50.306;18.926;2022-08-06T12:49:30;99000.84;;;18.49;86.35
41624;BME280;27319;50.306;18.926;2022-08-06T12:52:32;98998.34;;;18.48;86.42
41624;BME280;27319;50.306;18.926;2022-08-06T12:55:35;98997.94;;;18.51;84.77
41624;BME280;27319;50.306;18.926;2022-08-06T12:58:38;98995.84;;;18.46;85.63
41624;BME280;27319;50.306;18.926;2022-08-06T13:01:43;98997.16;;;18.57;85.42
41624;BME280;27319;50.306;18.926;2022-08-06T13:04:48;99002.09;;;18.47;84.87
41624;BME280;27319;50.306;18.926;2022-08-06T13:07:50;99003.41;;;18.30;86.13
41624;BME280;27319;50.306;18.926;2022-08-06T13:10:52;99007.56;;;18.26;87.20
41624;BME280;27319;50.306;18.926;2022-08-06T13:13:53;99001.22;;;18.40;85.20
41624;BME280;27319;50.306;18.926;2022-08-06T13:16:54;98999.13;;;18.42;86.32
41624;BME280;27319;50.306;18.926;2022-08-06T13:19:57;99006.97;;;18.58;84.97
41624;BME280;27319;50.306;18.926;2022-08-06T13:22:59;99005.19;;;18.71;84.02
41624;BME280;27319;50.306;18.926;2022-08-06T13:26:14;99011.81;;;18.62;85.31
41624;BME280;27319;50.306;18.926;2022-08-06T13:29:20;99008.09;;;18.70;84.58
41624;BME280;27319;50.306;18.926;2022-08-06T13:32:25;99016.09;;;18.78;85.14
41624;BME280;27319;50.306;18.926;2022-08-06T13:35:27;99013.16;;;18.79;83.66
41624;BME280;27319;50.306;18.926;2022-08-06T13:38:35;99018.97;;;18.70;84.80
41624;BME280;27319;50.306;18.926;2022-08-06T13:41:36;99010.44;;;18.79;84.64
41624;BME280;27319;50.306;18.926;2022-08-06T13:44:39;99010.81;;;18.70;84.54
41624;BME280;27319;50.306;18.926;2022-08-06T13:47:40;99014.88;;;18.87;85.91
41624;BME280;27319;50.306;18.926;2022-08-06T13:50:43;99016.16;;;18.97;87.28
41624;BME280;27319;50.306;18.926;2022-08-06T13:53:45;99017.03;;;18.98;85.70
41624;BME280;27319;50.306;18.926;2022-08-06T13:56:47;99017.88;;;18.98;83.93
41624;BME280;27319;50.306;18.926;2022-08-06T13:59:48;99018.66;;;18.86;84.12
41624;BME280;27319;50.306;18.926;2022-08-06T14:02:49;99014.13;;;18.99;84.31
41624;BME280;27319;50.306;18.926;2022-08-06T14:05:51;99012.72;;;18.76;83.51
41624;BME280;27319;50.306;18.926;2022-08-06T14:08:52;99011.06;;;18.75;82.96
41624;BME280;27319;50.306;18.926;2022-08-06T14:11:57;99011.47;;;18.78;83.90
41624;BME280;27319;50.306;18.926;2022-08-06T14:14:59;98996.88;;;18.86;84.68
41624;BME280;27319;50.306;18.926;2022-08-06T14:18:00;99001.50;;;18.92;84.14
41624;BME280;27319;50.306;18.926;2022-08-06T14:21:02;99000.13;;;19.09;82.57
41624;BME280;27319;50.306;18.926;2022-08-06T14:24:03;99009.97;;;19.10;83.25
41624;BME280;27319;50.306;18.926;2022-08-06T14:27:04;99008.78;;;19.25;81.99
41624;BME280;27319;50.306;18.926;2022-08-06T14:30:06;99010.31;;;19.47;82.50
41624;BME280;27319;50.306;18.926;2022-08-06T14:33:07;99009.31;;;19.55;80.92
41624;BME280;27319;50.306;18.926;2022-08-06T14:36:10;99004.31;;;19.65;82.66
41624;BME280;27319;50.306;18.926;2022-08-06T14:39:11;99006.59;;;19.68;81.13
41624;BME280;27319;50.306;18.926;2022-08-06T14:42:16;99000.13;;;19.82;79.48
41624;BME280;27319;50.306;18.926;2022-08-06T14:45:35;99004.78;;;20.14;80.26
41624;BME280;27319;50.306;18.926;2022-08-06T14:48:36;98997.22;;;20.22;76.57
41624;BME280;27319;50.306;18.926;2022-08-06T14:51:37;99003.72;;;20.15;77.26
41624;BME280;27319;50.306;18.926;2022-08-06T14:54:38;99000.78;;;20.16;76.73
41624;BME280;27319;50.306;18.926;2022-08-06T14:57:39;98998.69;;;20.18;76.41
41624;BME280;27319;50.306;18.926;2022-08-06T15:00:40;98994.69;;;20.53;76.74
41624;BME280;27319;50.306;18.926;2022-08-06T15:03:41;99009.59;;;20.25;73.92
41624;BME280;27319;50.306;18.926;2022-08-06T15:06:42;99000.38;;;20.19;73.52
41624;BME280;27319;50.306;18.926;2022-08-06T15:09:42;99001.81;;;20.54;73.71
41624;BME280;27319;50.306;18.926;2022-08-06T15:12:43;99000.53;;;20.44;72.94
41624;BME280;27319;50.306;18.926;2022-08-06T15:15:44;99002.38;;;20.76;71.58
41624;BME280;27319;50.306;18.926;2022-08-06T15:18:45;98999.63;;;20.89;71.82
41624;BME280;27319;50.306;18.926;2022-08-06T15:21:47;98999.63;;;20.82;71.69
41624;BME280;27319;50.306;18.926;2022-08-06T15:24:48;98989.78;;;20.68;72.46
41624;BME280;27319;50.306;18.926;2022-08-06T15:27:49;98988.63;;;20.25;73.64
41624;BME280;27319;50.306;18.926;2022-08-06T15:30:50;98998.69;;;20.12;75.59
41624;BME280;27319;50.306;18.926;2022-08-06T15:33:51;98992.19;;;20.06;74.21
41624;BME280;27319;50.306;18.926;2022-08-06T15:36:52;98991.13;;;20.01;77.00
41624;BME280;27319;50.306;18.926;2022-08-06T15:39:53;99000.13;;;19.88;74.83
41624;BME280;27319;50.306;18.926;2022-08-06T15:42:54;98985.47;;;19.96;76.74
41624;BME280;27319;50.306;18.926;2022-08-06T15:45:55;98998.25;;;19.89;75.89
41624;BME280;27319;50.306;18.926;2022-08-06T15:49:00;98988.81;;;19.91;74.37
41624;BME280;27319;50.306;18.926;2022-08-06T15:52:01;98973.72;;;19.82;74.77
41624;BME280;27319;50.306;18.926;2022-08-06T15:55:03;98988.59;;;19.80;74.02
41624;BME280;27319;50.306;18.926;2022-08-06T15:58:04;98985.03;;;19.73;74.41
41624;BME280;27319;50.306;18.926;2022-08-06T16:01:05;98983.34;;;19.85;73.51
41624;BME280;27319;50.306;18.926;2022-08-06T16:04:07;98991.13;;;19.88;72.96
41624;BME280;27319;50.306;18.926;2022-08-06T16:07:08;98994.69;;;19.82;73.13
41624;BME280;27319;50.306;18.926;2022-08-06T16:10:11;98994.47;;;19.77;74.32
41624;BME280;27319;50.306;18.926;2022-08-06T16:13:14;98996.13;;;19.78;73.95
41624;BME280;27319;50.306;18.926;2022-08-06T16:16:19;98994.25;;;19.85;72.30
41624;BME280;27319;50.306;18.926;2022-08-06T16:19:20;98988.97;;;19.64;75.74
41624;BME280;27319;50.306;18.926;2022-08-06T16:22:21;98989.84;;;19.64;74.46
41624;BME280;27319;50.306;18.926;2022-08-06T16:25:22;98983.34;;;19.59;74.32
41624;BME280;27319;50.306;18.926;2022-08-06T16:28:23;98986.66;;;19.41;74.34
41624;BME280;27319;50.306;18.926;2022-08-06T16:31:24;98985.00;;;19.47;73.69
41624;BME280;27319;50.306;18.926;2022-08-06T16:34:25;98990.41;;;19.40;76.33